sensor_id;sensor_type;location;lat;lon;timestamp;temperature;humidity
44647;DHT22;56315;-33.902;151.160;2022-07-06T00:00:29;15.90;99.90
44647;DHT22;56315;-33.902;151.160;2022-07-06T00:02:56;15.90;99.90
44647;DHT22;56315;-33.902;151.160;2022-07-06T00:05:24;15.90;99.90
44647;DHT22;56315;-33.902;151.160;2022-07-06T00:07:51;15.90;99.90
44647;DHT22;56315;-33.902;151.160;2022-07-06T00:10:19;15.90;99.90
44647;DHT22;56315;-33.902;151.160;2022-07-06T00:12:46;15.90;99.90
44647;DHT22;56315;-33.902;151.160;2022-07-06T00:15:14;15.90;99.90
44647;DHT22;56315;-33.902;151.160;2022-07-06T00:17:41;15.90;99.90
44647;DHT22;56315;-33.902;151.160;2022-07-06T00:20:09;15.80;99.90
44647;DHT22;56315;-33.902;151.160;2022-07-06T00:22:36;15.80;99.90
44647;DHT22;56315;-33.902;151.160;2022-07-06T00:25:04;15.80;99.90
44647;DHT22;56315;-33.902;151.160;2022-07-06T00:27:32;15.80;99.90
44647;DHT22;56315;-33.902;151.160;2022-07-06T00:29:59;15.70;99.90
44647;DHT22;56315;-33.902;151.160;2022-07-06T00:32:26;15.70;99.90
44647;DHT22;56315;-33.902;151.160;2022-07-06T00:34:54;15.70;99.90
44647;DHT22;56315;-33.902;151.160;2022-07-06T00:37:21;15.70;99.90
44647;DHT22;56315;-33.902;151.160;2022-07-06T00:39:48;15.70;99.90
44647;DHT22;56315;-33.902;151.160;2022-07-06T00:42:16;15.70;99.90
44647;DHT22;56315;-33.902;151.160;2022-07-06T00:44:43;15.80;99.90
44647;DHT22;56315;-33.902;151.160;2022-07-06T00:47:10;15.90;99.90
44647;DHT22;56315;-33.902;151.160;2022-07-06T00:49:38;15.90;99.90
44647;DHT22;56315;-33.902;151.160;2022-07-06T00:52:24;16.00;99.90
44647;DHT22;56315;-33.902;151.160;2022-07-06T00:54:51;16.00;99.90
44647;DHT22;56315;-33.902;151.160;2022-07-06T00:57:20;16.10;99.90
44647;DHT22;56315;-33.902;151.160;2022-07-06T00:59:47;16.20;99.90
44647;DHT22;56315;-33.902;151.160;2022-07-06T01:02:15;16.20;99.90
44647;DHT22;56315;-33.902;151.160;2022-07-06T01:04:42;16.10;99.90
44647;DHT22;56315;-33.902;151.160;2022-07-06T01:07:10;16.10;99.90
44647;DHT22;56315;-33.902;151.160;2022-07-06T01:09:37;16.10;99.90
44647;DHT22;56315;-33.902;151.160;2022-07-06T01:12:05;16.10;99.90
44647;DHT22;56315;-33.902;151.160;2022-07-06T01:14:33;16.10;99.90
44647;DHT22;56315;-33.902;151.160;2022-07-06T01:17:01;16.00;99.90
44647;DHT22;56315;-33.902;151.160;2022-07-06T01:19:29;16.00;99.90
44647;DHT22;56315;-33.902;151.160;2022-07-06T01:21:56;15.90;99.90
44647;DHT22;56315;-33.902;151.160;2022-07-06T01:24:24;15.90;99.90
44647;DHT22;56315;-33.902;151.160;2022-07-06T01:26:51;15.90;99.90
44647;DHT22;56315;-33.902;151.160;2022-07-06T01:29:18;16.00;99.90
44647;DHT22;56315;-33.902;151.160;2022-07-06T01:31:48;16.00;99.90
44647;DHT22;56315;-33.902;151.160;2022-07-06T01:34:17;16.00;99.90
44647;DHT22;56315;-33.902;151.160;2022-07-06T01:36:45;16.10;99.90
44647;DHT22;56315;-33.902;151.160;2022-07-06T01:39:13;16.10;99.90
44647;DHT22;56315;-33.902;151.160;2022-07-06T01:41:40;16.10;99.90
44647;DHT22;56315;-33.902;151.160;2022-07-06T01:44:07;16.10;99.90
44647;DHT22;56315;-33.902;151.160;2022-07-06T01:46:35;16.10;99.90
44647;DHT22;56315;-33.902;151.160;2022-07-06T01:49:03;16.20;99.90
44647;DHT22;56315;-33.902;151.160;2022-07-06T01:51:30;16.20;99.90
44647;DHT22;56315;-33.902;151.160;2022-07-06T01:53:58;16.10;99.90
44647;DHT22;56315;-33.902;151.160;2022-07-06T01:56:26;16.20;99.90
44647;DHT22;56315;-33.902;151.160;2022-07-06T01:58:53;16.20;99.90
44647;DHT22;56315;-33.902;151.160;2022-07-06T02:01:20;16.20;99.90
44647;DHT22;56315;-33.902;151.160;2022-07-06T02:03:48;16.10;99.90
44647;DHT22;56315;-33.902;151.160;2022-07-06T02:06:15;16.10;99.90
44647;DHT22;56315;-33.902;151.160;2022-07-06T02:08:43;16.00;99.90
44647;DHT22;56315;-33.902;151.160;2022-07-06T02:11:10;16.00;99.90
44647;DHT22;56315;-33.902;151.160;2022-07-06T02:13:38;16.00;99.90
44647;DHT22;56315;-33.902;151.160;2022-07-06T02:16:06;15.90;99.90
44647;DHT22;56315;-33.902;151.160;2022-07-06T02:18:33;15.90;99.90
44647;DHT22;56315;-33.902;151.160;2022-07-06T02:21:01;15.80;99.90
44647;DHT22;56315;-33.902;151.160;2022-07-06T02:23:28;15.80;99.90
44647;DHT22;56315;-33.902;151.160;2022-07-06T02:25:55;15.80;99.90
44647;DHT22;56315;-33.902;151.160;2022-07-06T02:28:23;15.90;99.90
44647;DHT22;56315;-33.902;151.160;2022-07-06T02:30:50;15.90;99.90
44647;DHT22;56315;-33.902;151.160;2022-07-06T02:33:18;15.90;99.90
44647;DHT22;56315;-33.902;151.160;2022-07-06T02:35:45;15.90;99.90
44647;DHT22;56315;-33.902;151.160;2022-07-06T02:38:12;15.90;99.90
44647;DHT22;56315;-33.902;151.160;2022-07-06T02:40:40;16.00;99.90
44647;DHT22;56315;-33.902;151.160;2022-07-06T02:43:07;16.00;99.90
44647;DHT22;56315;-33.902;151.160;2022-07-06T02:45:35;15.90;99.90
44647;DHT22;56315;-33.902;151.160;2022-07-06T02:48:02;16.00;99.90
44647;DHT22;56315;-33.902;151.160;2022-07-06T02:50:29;16.10;99.90
44647;DHT22;56315;-33.902;151.160;2022-07-06T02:52:57;16.10;99.90
44647;DHT22;56315;-33.902;151.160;2022-07-06T02:55:25;16.20;99.90
44647;DHT22;56315;-33.902;151.160;2022-07-06T02:57:52;16.30;99.90
44647;DHT22;56315;-33.902;151.160;2022-07-06T03:00:20;16.30;99.90
44647;DHT22;56315;-33.902;151.160;2022-07-06T03:02:47;16.30;99.90
44647;DHT22;56315;-33.902;151.160;2022-07-06T03:05:14;16.40;99.90
44647;DHT22;56315;-33.902;151.160;2022-07-06T03:07:42;16.40;99.90
44647;DHT22;56315;-33.902;151.160;2022-07-06T03:10:09;16.40;99.90
44647;DHT22;56315;-33.902;151.160;2022-07-06T03:12:36;16.50;99.90
44647;DHT22;56315;-33.902;151.160;2022-07-06T03:15:04;16.50;99.90
44647;DHT22;56315;-33.902;151.160;2022-07-06T03:17:31;16.50;99.90
44647;DHT22;56315;-33.902;151.160;2022-07-06T03:19:58;16.60;99.90
44647;DHT22;56315;-33.902;151.160;2022-07-06T03:22:26;16.70;99.90
44647;DHT22;56315;-33.902;151.160;2022-07-06T03:24:53;16.60;99.90
44647;DHT22;56315;-33.902;151.160;2022-07-06T03:27:20;16.60;99.90
44647;DHT22;56315;-33.902;151.160;2022-07-06T03:29:48;16.60;99.90
44647;DHT22;56315;-33.902;151.160;2022-07-06T03:32:15;16.70;99.90
44647;DHT22;56315;-33.902;151.160;2022-07-06T03:34:43;16.70;99.90
44647;DHT22;56315;-33.902;151.160;2022-07-06T03:37:10;16.70;99.90
44647;DHT22;56315;-33.902;151.160;2022-07-06T03:39:37;16.70;99.90
44647;DHT22;56315;-33.902;151.160;2022-07-06T03:42:05;16.50;99.90
44647;DHT22;56315;-33.902;151.160;2022-07-06T03:44:32;16.40;99.90
44647;DHT22;56315;-33.902;151.160;2022-07-06T03:46:59;16.30;99.90
44647;DHT22;56315;-33.902;151.160;2022-07-06T03:49:27;16.30;99.90
44647;DHT22;56315;-33.902;151.160;2022-07-06T03:51:54;16.30;99.90
44647;DHT22;56315;-33.902;151.160;2022-07-06T03:54:22;16.30;99.90
44647;DHT22;56315;-33.902;151.160;2022-07-06T03:56:49;16.30;99.90
44647;DHT22;56315;-33.902;151.160;2022-07-06T03:59:16;16.30;99.90
44647;DHT22;56315;-33.902;151.160;2022-07-06T04:01:44;16.30;99.90
44647;DHT22;56315;-33.902;151.160;2022-07-06T04:04:12;16.30;99.90
44647;DHT22;56315;-33.902;151.160;2022-07-06T04:06:39;16.30;99.90
44647;DHT22;56315;-33.902;151.160;2022-07-06T04:09:06;16.20;99.90
44647;DHT22;56315;-33.902;151.160;2022-07-06T04:11:34;16.10;99.90
44647;DHT22;56315;-33.902;151.160;2022-07-06T04:14:01;16.10;99.90
44647;DHT22;56315;-33.902;151.160;2022-07-06T04:16:29;16.00;99.90
44647;DHT22;56315;-33.902;151.160;2022-07-06T04:18:56;15.90;99.90
44647;DHT22;56315;-33.902;151.160;2022-07-06T04:21:24;15.90;99.90
44647;DHT22;56315;-33.902;151.160;2022-07-06T04:23:51;15.80;99.90
44647;DHT22;56315;-33.902;151.160;2022-07-06T04:26:18;15.80;99.90
44647;DHT22;56315;-33.902;151.160;2022-07-06T04:28:46;15.80;99.90
44647;DHT22;56315;-33.902;151.160;2022-07-06T04:31:13;15.70;99.90
44647;DHT22;56315;-33.902;151.160;2022-07-06T04:33:44;15.80;99.90
44647;DHT22;56315;-33.902;151.160;2022-07-06T04:36:12;15.80;99.90
44647;DHT22;56315;-33.902;151.160;2022-07-06T04:38:39;15.80;99.90
44647;DHT22;56315;-33.902;151.160;2022-07-06T04:41:07;15.80;99.90
44647;DHT22;56315;-33.902;151.160;2022-07-06T04:43:34;15.80;99.90
44647;DHT22;56315;-33.902;151.160;2022-07-06T04:46:01;15.80;99.90
44647;DHT22;56315;-33.902;151.160;2022-07-06T04:48:29;15.70;99.90
44647;DHT22;56315;-33.902;151.160;2022-07-06T04:50:56;15.70;99.90
44647;DHT22;56315;-33.902;151.160;2022-07-06T04:53:23;15.70;99.90
44647;DHT22;56315;-33.902;151.160;2022-07-06T04:55:51;15.70;99.90
44647;DHT22;56315;-33.902;151.160;2022-07-06T04:58:18;15.70;99.90
44647;DHT22;56315;-33.902;151.160;2022-07-06T05:00:45;15.60;99.90
44647;DHT22;56315;-33.902;151.160;2022-07-06T05:03:12;15.60;99.90
44647;DHT22;56315;-33.902;151.160;2022-07-06T05:05:40;15.60;99.90
44647;DHT22;56315;-33.902;151.160;2022-07-06T05:08:37;15.50;99.90
44647;DHT22;56315;-33.902;151.160;2022-07-06T05:11:23;15.50;99.90
44647;DHT22;56315;-33.902;151.160;2022-07-06T05:17:12;15.60;99.90
44647;DHT22;56315;-33.902;151.160;2022-07-06T05:19:39;15.70;99.90
44647;DHT22;56315;-33.902;151.160;2022-07-06T05:22:07;15.70;99.90
44647;DHT22;56315;-33.902;151.160;2022-07-06T05:24:34;15.70;99.90
44647;DHT22;56315;-33.902;151.160;2022-07-06T05:27:01;15.80;99.90
44647;DHT22;56315;-33.902;151.160;2022-07-06T05:29:29;15.80;99.90
44647;DHT22;56315;-33.902;151.160;2022-07-06T05:31:56;15.90;99.90
44647;DHT22;56315;-33.902;151.160;2022-07-06T05:34:23;15.90;99.90
44647;DHT22;56315;-33.902;151.160;2022-07-06T05:36:51;15.90;99.90
44647;DHT22;56315;-33.902;151.160;2022-07-06T05:39:18;15.90;99.90
44647;DHT22;56315;-33.902;151.160;2022-07-06T05:41:48;15.90;99.90
44647;DHT22;56315;-33.902;151.160;2022-07-06T05:44:16;15.90;99.90
44647;DHT22;56315;-33.902;151.160;2022-07-06T05:46:43;15.90;99.90
44647;DHT22;56315;-33.902;151.160;2022-07-06T05:49:10;15.90;99.90
44647;DHT22;56315;-33.902;151.160;2022-07-06T05:51:56;15.90;99.90
44647;DHT22;56315;-33.902;151.160;2022-07-06T05:54:23;15.90;99.90
44647;DHT22;56315;-33.902;151.160;2022-07-06T05:56:50;15.90;99.90
44647;DHT22;56315;-33.902;151.160;2022-07-06T05:59:17;15.80;99.90
44647;DHT22;56315;-33.902;151.160;2022-07-06T06:01:45;15.80;99.90
44647;DHT22;56315;-33.902;151.160;2022-07-06T06:04:12;15.80;99.90
44647;DHT22;56315;-33.902;151.160;2022-07-06T06:06:40;15.80;99.90
44647;DHT22;56315;-33.902;151.160;2022-07-06T06:09:07;15.80;99.90
44647;DHT22;56315;-33.902;151.160;2022-07-06T06:11:35;15.70;99.90
44647;DHT22;56315;-33.902;151.160;2022-07-06T06:14:02;15.70;99.90
44647;DHT22;56315;-33.902;151.160;2022-07-06T06:16:30;15.70;99.90
44647;DHT22;56315;-33.902;151.160;2022-07-06T06:18:58;15.70;99.90
44647;DHT22;56315;-33.902;151.160;2022-07-06T06:21:25;15.70;99.90
44647;DHT22;56315;-33.902;151.160;2022-07-06T06:23:53;15.70;99.90
44647;DHT22;56315;-33.902;151.160;2022-07-06T06:26:20;15.70;99.90
44647;DHT22;56315;-33.902;151.160;2022-07-06T06:28:48;15.70;99.90
44647;DHT22;56315;-33.902;151.160;2022-07-06T06:31:16;15.80;99.90
44647;DHT22;56315;-33.902;151.160;2022-07-06T06:33:43;15.80;99.90
44647;DHT22;56315;-33.902;151.160;2022-07-06T06:36:11;15.80;99.90
44647;DHT22;56315;-33.902;151.160;2022-07-06T06:38:39;15.80;99.90
44647;DHT22;56315;-33.902;151.160;2022-07-06T06:41:06;15.80;99.90
44647;DHT22;56315;-33.902;151.160;2022-07-06T06:43:34;15.70;99.90
44647;DHT22;56315;-33.902;151.160;2022-07-06T06:46:02;15.70;99.90
44647;DHT22;56315;-33.902;151.160;2022-07-06T06:48:29;15.70;99.90
44647;DHT22;56315;-33.902;151.160;2022-07-06T06:50:58;15.70;99.90
44647;DHT22;56315;-33.902;151.160;2022-07-06T06:53:25;15.70;99.90
44647;DHT22;56315;-33.902;151.160;2022-07-06T06:55:53;15.70;99.90
44647;DHT22;56315;-33.902;151.160;2022-07-06T06:58:20;15.70;99.90
44647;DHT22;56315;-33.902;151.160;2022-07-06T07:00:48;15.70;99.90
44647;DHT22;56315;-33.902;151.160;2022-07-06T07:03:16;15.70;99.90
44647;DHT22;56315;-33.902;151.160;2022-07-06T07:05:43;15.70;99.90
44647;DHT22;56315;-33.902;151.160;2022-07-06T07:08:11;15.70;99.90
44647;DHT22;56315;-33.902;151.160;2022-07-06T07:10:38;15.70;99.90
44647;DHT22;56315;-33.902;151.160;2022-07-06T07:13:06;15.80;99.90
44647;DHT22;56315;-33.902;151.160;2022-07-06T07:15:33;15.80;99.90
44647;DHT22;56315;-33.902;151.160;2022-07-06T07:18:01;15.90;99.90
44647;DHT22;56315;-33.902;151.160;2022-07-06T07:20:28;16.00;99.90
44647;DHT22;56315;-33.902;151.160;2022-07-06T07:22:57;16.00;99.90
44647;DHT22;56315;-33.902;151.160;2022-07-06T07:25:24;16.00;99.90
44647;DHT22;56315;-33.902;151.160;2022-07-06T07:27:52;15.90;99.90
44647;DHT22;56315;-33.902;151.160;2022-07-06T07:30:20;15.90;99.90
44647;DHT22;56315;-33.902;151.160;2022-07-06T07:32:47;15.80;99.90
44647;DHT22;56315;-33.902;151.160;2022-07-06T07:35:15;15.80;99.90
44647;DHT22;56315;-33.902;151.160;2022-07-06T07:37:42;15.70;99.90
44647;DHT22;56315;-33.902;151.160;2022-07-06T07:40:10;15.70;99.90
44647;DHT22;56315;-33.902;151.160;2022-07-06T07:42:38;15.60;99.90
44647;DHT22;56315;-33.902;151.160;2022-07-06T07:45:08;15.60;99.90
44647;DHT22;56315;-33.902;151.160;2022-07-06T07:47:35;15.60;99.90
44647;DHT22;56315;-33.902;151.160;2022-07-06T07:50:03;15.60;99.90
44647;DHT22;56315;-33.902;151.160;2022-07-06T07:52:31;15.60;99.90
44647;DHT22;56315;-33.902;151.160;2022-07-06T07:54:58;15.60;99.90
44647;DHT22;56315;-33.902;151.160;2022-07-06T07:57:26;15.60;99.90
44647;DHT22;56315;-33.902;151.160;2022-07-06T07:59:53;15.60;99.90
44647;DHT22;56315;-33.902;151.160;2022-07-06T08:02:21;15.60;99.90
44647;DHT22;56315;-33.902;151.160;2022-07-06T08:04:48;15.60;99.90
44647;DHT22;56315;-33.902;151.160;2022-07-06T08:07:16;15.60;99.90
44647;DHT22;56315;-33.902;151.160;2022-07-06T08:09:43;15.70;99.90
44647;DHT22;56315;-33.902;151.160;2022-07-06T08:12:11;15.70;99.90
44647;DHT22;56315;-33.902;151.160;2022-07-06T08:14:38;15.70;99.90
44647;DHT22;56315;-33.902;151.160;2022-07-06T08:17:06;15.70;99.90
44647;DHT22;56315;-33.902;151.160;2022-07-06T08:19:33;15.70;99.90
44647;DHT22;56315;-33.902;151.160;2022-07-06T08:22:01;15.70;99.90
44647;DHT22;56315;-33.902;151.160;2022-07-06T08:24:36;15.70;99.90
44647;DHT22;56315;-33.902;151.160;2022-07-06T08:27:04;15.70;99.90
44647;DHT22;56315;-33.902;151.160;2022-07-06T08:29:31;15.70;99.90
44647;DHT22;56315;-33.902;151.160;2022-07-06T08:31:59;15.70;99.90
44647;DHT22;56315;-33.902;151.160;2022-07-06T08:34:26;15.70;99.90
44647;DHT22;56315;-33.902;151.160;2022-07-06T08:36:54;15.70;99.90
44647;DHT22;56315;-33.902;151.160;2022-07-06T08:39:22;15.70;99.90
44647;DHT22;56315;-33.902;151.160;2022-07-06T08:41:51;15.70;99.90
44647;DHT22;56315;-33.902;151.160;2022-07-06T08:44:19;15.70;99.90
44647;DHT22;56315;-33.902;151.160;2022-07-06T08:46:49;15.70;99.90
44647;DHT22;56315;-33.902;151.160;2022-07-06T08:49:19;15.70;99.90
44647;DHT22;56315;-33.902;151.160;2022-07-06T08:51:47;15.70;99.90
44647;DHT22;56315;-33.902;151.160;2022-07-06T08:54:15;15.70;99.90
44647;DHT22;56315;-33.902;151.160;2022-07-06T08:56:44;15.70;99.90
44647;DHT22;56315;-33.902;151.160;2022-07-06T08:59:12;15.70;99.90
44647;DHT22;56315;-33.902;151.160;2022-07-06T09:01:40;15.70;99.90
44647;DHT22;56315;-33.902;151.160;2022-07-06T09:04:08;15.60;99.90
44647;DHT22;56315;-33.902;151.160;2022-07-06T09:06:36;15.60;99.90
44647;DHT22;56315;-33.902;151.160;2022-07-06T09:09:06;15.60;99.90
44647;DHT22;56315;-33.902;151.160;2022-07-06T09:11:34;15.60;99.90
44647;DHT22;56315;-33.902;151.160;2022-07-06T09:14:02;15.60;99.90
44647;DHT22;56315;-33.902;151.160;2022-07-06T09:16:30;15.60;99.90
44647;DHT22;56315;-33.902;151.160;2022-07-06T09:18:58;15.60;99.90
44647;DHT22;56315;-33.902;151.160;2022-07-06T09:21:28;15.60;99.90
44647;DHT22;56315;-33.902;151.160;2022-07-06T09:24:06;15.60;99.90
44647;DHT22;56315;-33.902;151.160;2022-07-06T09:26:34;15.60;99.90
44647;DHT22;56315;-33.902;151.160;2022-07-06T09:29:03;15.50;99.90
44647;DHT22;56315;-33.902;151.160;2022-07-06T09:31:31;15.60;99.90
44647;DHT22;56315;-33.902;151.160;2022-07-06T09:34:08;15.50;99.90
44647;DHT22;56315;-33.902;151.160;2022-07-06T09:36:43;15.60;99.90
44647;DHT22;56315;-33.902;151.160;2022-07-06T09:39:25;15.60;99.90
44647;DHT22;56315;-33.902;151.160;2022-07-06T09:41:56;15.60;99.90
44647;DHT22;56315;-33.902;151.160;2022-07-06T09:44:31;15.60;99.90
44647;DHT22;56315;-33.902;151.160;2022-07-06T09:47:00;15.60;99.90
44647;DHT22;56315;-33.902;151.160;2022-07-06T09:49:29;15.60;99.90
44647;DHT22;56315;-33.902;151.160;2022-07-06T09:51:58;15.60;99.90
44647;DHT22;56315;-33.902;151.160;2022-07-06T09:54:26;15.60;99.90
44647;DHT22;56315;-33.902;151.160;2022-07-06T09:56:54;15.60;99.90
44647;DHT22;56315;-33.902;151.160;2022-07-06T09:59:24;15.50;99.90
44647;DHT22;56315;-33.902;151.160;2022-07-06T10:01:54;15.60;99.90
44647;DHT22;56315;-33.902;151.160;2022-07-06T10:04:23;15.50;99.90
44647;DHT22;56315;-33.902;151.160;2022-07-06T10:06:52;15.50;99.90
44647;DHT22;56315;-33.902;151.160;2022-07-06T10:09:20;15.50;99.90
44647;DHT22;56315;-33.902;151.160;2022-07-06T10:11:53;15.50;99.90
44647;DHT22;56315;-33.902;151.160;2022-07-06T10:14:31;15.60;99.90
44647;DHT22;56315;-33.902;151.160;2022-07-06T10:17:01;15.60;99.90
44647;DHT22;56315;-33.902;151.160;2022-07-06T10:19:31;15.60;99.90
44647;DHT22;56315;-33.902;151.160;2022-07-06T10:22:03;15.60;99.90
44647;DHT22;56315;-33.902;151.160;2022-07-06T10:24:31;15.60;99.90
44647;DHT22;56315;-33.902;151.160;2022-07-06T10:27:00;15.50;99.90
44647;DHT22;56315;-33.902;151.160;2022-07-06T10:29:28;15.50;99.90
44647;DHT22;56315;-33.902;151.160;2022-07-06T10:31:57;15.50;99.90
44647;DHT22;56315;-33.902;151.160;2022-07-06T10:34:24;15.50;99.90
44647;DHT22;56315;-33.902;151.160;2022-07-06T10:36:53;15.50;99.90
44647;DHT22;56315;-33.902;151.160;2022-07-06T10:39:36;15.50;99.90
44647;DHT22;56315;-33.902;151.160;2022-07-06T10:42:44;15.40;99.90
44647;DHT22;56315;-33.902;151.160;2022-07-06T10:45:14;15.50;99.90
44647;DHT22;56315;-33.902;151.160;2022-07-06T10:47:42;15.50;99.90
44647;DHT22;56315;-33.902;151.160;2022-07-06T10:50:10;15.40;99.90
44647;DHT22;56315;-33.902;151.160;2022-07-06T10:52:52;15.40;99.90
44647;DHT22;56315;-33.902;151.160;2022-07-06T10:55:36;15.40;99.90
44647;DHT22;56315;-33.902;151.160;2022-07-06T10:58:04;15.40;99.90
44647;DHT22;56315;-33.902;151.160;2022-07-06T11:04:04;15.30;99.90
44647;DHT22;56315;-33.902;151.160;2022-07-06T11:06:25;15.30;99.90
44647;DHT22;56315;-33.902;151.160;2022-07-06T11:09:07;15.30;99.90
44647;DHT22;56315;-33.902;151.160;2022-07-06T11:14:06;15.40;99.90
44647;DHT22;56315;-33.902;151.160;2022-07-06T11:19:11;15.30;99.90
44647;DHT22;56315;-33.902;151.160;2022-07-06T11:21:52;15.30;99.90
44647;DHT22;56315;-33.902;151.160;2022-07-06T11:24:27;15.30;99.90
44647;DHT22;56315;-33.902;151.160;2022-07-06T11:26:56;15.30;99.90
44647;DHT22;56315;-33.902;151.160;2022-07-06T11:29:25;15.30;99.90
44647;DHT22;56315;-33.902;151.160;2022-07-06T11:31:58;15.30;99.90
44647;DHT22;56315;-33.902;151.160;2022-07-06T11:34:32;15.30;99.90
44647;DHT22;56315;-33.902;151.160;2022-07-06T11:37:02;15.30;99.90
44647;DHT22;56315;-33.902;151.160;2022-07-06T11:39:34;15.30;99.90
44647;DHT22;56315;-33.902;151.160;2022-07-06T11:42:02;15.30;99.90
44647;DHT22;56315;-33.902;151.160;2022-07-06T11:44:34;15.30;99.90
44647;DHT22;56315;-33.902;151.160;2022-07-06T11:47:03;15.30;99.90
44647;DHT22;56315;-33.902;151.160;2022-07-06T11:49:31;15.20;99.90
44647;DHT22;56315;-33.902;151.160;2022-07-06T11:51:59;15.20;99.90
44647;DHT22;56315;-33.902;151.160;2022-07-06T11:54:27;15.20;99.90
44647;DHT22;56315;-33.902;151.160;2022-07-06T11:56:56;15.20;99.90
44647;DHT22;56315;-33.902;151.160;2022-07-06T11:59:28;15.20;99.90
44647;DHT22;56315;-33.902;151.160;2022-07-06T12:02:03;15.20;99.90
44647;DHT22;56315;-33.902;151.160;2022-07-06T12:04:32;15.20;99.90
44647;DHT22;56315;-33.902;151.160;2022-07-06T12:07:04;15.20;99.90
44647;DHT22;56315;-33.902;151.160;2022-07-06T12:09:33;15.10;99.90
44647;DHT22;56315;-33.902;151.160;2022-07-06T12:12:01;15.10;99.90
44647;DHT22;56315;-33.902;151.160;2022-07-06T12:14:30;15.10;99.90
44647;DHT22;56315;-33.902;151.160;2022-07-06T12:17:03;15.10;99.90
44647;DHT22;56315;-33.902;151.160;2022-07-06T12:19:31;15.00;99.90
44647;DHT22;56315;-33.902;151.160;2022-07-06T12:21:59;15.00;99.90
44647;DHT22;56315;-33.902;151.160;2022-07-06T12:24:29;14.90;99.90
44647;DHT22;56315;-33.902;151.160;2022-07-06T12:27:16;14.90;99.90
44647;DHT22;56315;-33.902;151.160;2022-07-06T12:29:44;14.90;99.90
44647;DHT22;56315;-33.902;151.160;2022-07-06T12:34:43;14.80;99.90
44647;DHT22;56315;-33.902;151.160;2022-07-06T12:37:11;14.70;99.90
44647;DHT22;56315;-33.902;151.160;2022-07-06T12:39:47;14.70;99.90
44647;DHT22;56315;-33.902;151.160;2022-07-06T12:42:15;14.60;99.90
44647;DHT22;56315;-33.902;151.160;2022-07-06T12:44:45;14.60;99.90
44647;DHT22;56315;-33.902;151.160;2022-07-06T12:47:16;14.60;99.90
44647;DHT22;56315;-33.902;151.160;2022-07-06T12:49:43;14.60;99.90
44647;DHT22;56315;-33.902;151.160;2022-07-06T12:52:16;14.60;99.90
44647;DHT22;56315;-33.902;151.160;2022-07-06T12:54:45;14.50;99.90
44647;DHT22;56315;-33.902;151.160;2022-07-06T13:00:02;14.50;99.90
44647;DHT22;56315;-33.902;151.160;2022-07-06T13:02:35;14.50;99.90
44647;DHT22;56315;-33.902;151.160;2022-07-06T13:05:08;14.50;99.90
44647;DHT22;56315;-33.902;151.160;2022-07-06T13:07:44;14.50;99.90
44647;DHT22;56315;-33.902;151.160;2022-07-06T13:10:12;14.50;99.90
44647;DHT22;56315;-33.902;151.160;2022-07-06T13:12:40;14.50;99.90
44647;DHT22;56315;-33.902;151.160;2022-07-06T13:15:09;14.50;99.90
44647;DHT22;56315;-33.902;151.160;2022-07-06T13:17:37;14.50;99.90
44647;DHT22;56315;-33.902;151.160;2022-07-06T13:20:05;14.50;99.90
44647;DHT22;56315;-33.902;151.160;2022-07-06T13:22:33;14.50;99.90
44647;DHT22;56315;-33.902;151.160;2022-07-06T13:25:01;14.50;99.90
44647;DHT22;56315;-33.902;151.160;2022-07-06T13:27:28;14.50;99.90
44647;DHT22;56315;-33.902;151.160;2022-07-06T13:29:56;14.50;99.90
44647;DHT22;56315;-33.902;151.160;2022-07-06T13:32:23;14.50;99.90
44647;DHT22;56315;-33.902;151.160;2022-07-06T13:34:50;14.50;99.90
44647;DHT22;56315;-33.902;151.160;2022-07-06T13:37:19;14.50;99.90
44647;DHT22;56315;-33.902;151.160;2022-07-06T13:39:47;14.50;99.90
44647;DHT22;56315;-33.902;151.160;2022-07-06T13:42:14;14.50;99.90
44647;DHT22;56315;-33.902;151.160;2022-07-06T13:44:42;14.50;99.90
44647;DHT22;56315;-33.902;151.160;2022-07-06T13:47:10;14.40;99.90
44647;DHT22;56315;-33.902;151.160;2022-07-06T13:49:37;14.40;99.90
44647;DHT22;56315;-33.902;151.160;2022-07-06T13:52:05;14.40;99.90
44647;DHT22;56315;-33.902;151.160;2022-07-06T13:54:33;14.40;99.90
44647;DHT22;56315;-33.902;151.160;2022-07-06T13:57:04;14.40;99.90
44647;DHT22;56315;-33.902;151.160;2022-07-06T13:59:33;14.50;99.90
44647;DHT22;56315;-33.902;151.160;2022-07-06T14:02:00;14.50;99.90
44647;DHT22;56315;-33.902;151.160;2022-07-06T14:04:28;14.40;99.90
44647;DHT22;56315;-33.902;151.160;2022-07-06T14:06:55;14.40;99.90
44647;DHT22;56315;-33.902;151.160;2022-07-06T14:09:23;14.40;99.90
44647;DHT22;56315;-33.902;151.160;2022-07-06T14:11:50;14.40;99.90
44647;DHT22;56315;-33.902;151.160;2022-07-06T14:14:17;14.40;99.90
44647;DHT22;56315;-33.902;151.160;2022-07-06T14:16:45;14.40;99.90
44647;DHT22;56315;-33.902;151.160;2022-07-06T14:19:12;14.40;99.90
44647;DHT22;56315;-33.902;151.160;2022-07-06T14:21:39;14.40;99.90
44647;DHT22;56315;-33.902;151.160;2022-07-06T14:24:09;14.40;99.90
44647;DHT22;56315;-33.902;151.160;2022-07-06T14:26:36;14.30;99.90
44647;DHT22;56315;-33.902;151.160;2022-07-06T14:29:04;14.30;99.90
44647;DHT22;56315;-33.902;151.160;2022-07-06T14:31:31;14.30;99.90
44647;DHT22;56315;-33.902;151.160;2022-07-06T14:33:59;14.40;99.90
44647;DHT22;56315;-33.902;151.160;2022-07-06T14:36:26;14.40;99.90
44647;DHT22;56315;-33.902;151.160;2022-07-06T14:38:53;14.40;99.90
44647;DHT22;56315;-33.902;151.160;2022-07-06T14:41:20;14.40;99.90
44647;DHT22;56315;-33.902;151.160;2022-07-06T14:43:48;14.40;99.90
44647;DHT22;56315;-33.902;151.160;2022-07-06T14:46:16;14.40;99.90
44647;DHT22;56315;-33.902;151.160;2022-07-06T14:48:43;14.40;99.90
44647;DHT22;56315;-33.902;151.160;2022-07-06T14:51:11;14.40;99.90
44647;DHT22;56315;-33.902;151.160;2022-07-06T14:53:39;14.40;99.90
44647;DHT22;56315;-33.902;151.160;2022-07-06T14:56:06;14.40;99.90
44647;DHT22;56315;-33.902;151.160;2022-07-06T14:58:34;14.40;99.90
44647;DHT22;56315;-33.902;151.160;2022-07-06T15:01:02;14.40;99.90
44647;DHT22;56315;-33.902;151.160;2022-07-06T15:03:30;14.40;99.90
44647;DHT22;56315;-33.902;151.160;2022-07-06T15:05:57;14.50;99.90
44647;DHT22;56315;-33.902;151.160;2022-07-06T15:08:25;14.50;99.90
44647;DHT22;56315;-33.902;151.160;2022-07-06T15:10:52;14.50;99.90
44647;DHT22;56315;-33.902;151.160;2022-07-06T15:13:20;14.50;99.90